sensor_id;sensor_type;location;lat;lon;timestamp;pressure;altitude;pressure_sealevel;temperature;humidity
48015;BME280;33780;51.034;7.120;2022-08-14T00:00:28;100422.34;;;23.01;45.58
48015;BME280;33780;51.034;7.120;2022-08-14T00:03:33;100416.06;;;23.01;45.47
48015;BME280;33780;51.034;7.120;2022-08-14T00:06:20;100411.44;;;23.01;45.79
48015;BME280;33780;51.034;7.120;2022-08-14T00:09:11;100408.94;;;23.00;46.13
48015;BME280;33780;51.034;7.120;2022-08-14T00:15:20;100394.03;;;22.96;47.01
48015;BME280;33780;51.034;7.120;2022-08-14T00:17:47;100400.31;;;22.96;45.97
48015;BME280;33780;51.034;7.120;2022-08-14T00:20:14;100396.75;;;22.96;46.31
48015;BME280;33780;51.034;7.120;2022-08-14T00:22:40;100397.81;;;22.95;46.82
48015;BME280;33780;51.034;7.120;2022-08-14T00:28:27;100396.38;;;22.92;47.04
48015;BME280;33780;51.034;7.120;2022-08-14T00:30:55;100388.41;;;22.90;47.29
48015;BME280;33780;51.034;7.120;2022-08-14T00:33:25;100382.72;;;22.92;47.26
48015;BME280;33780;51.034;7.120;2022-08-14T00:35:51;100383.56;;;22.92;47.46
48015;BME280;33780;51.034;7.120;2022-08-14T00:38:18;100386.28;;;22.92;47.12
48015;BME280;33780;51.034;7.120;2022-08-14T00:40:43;100382.28;;;22.95;46.88
48015;BME280;33780;51.034;7.120;2022-08-14T00:43:09;100379.53;;;22.95;47.08
48015;BME280;33780;51.034;7.120;2022-08-14T00:45:35;100374.09;;;22.95;46.92
48015;BME280;33780;51.034;7.120;2022-08-14T00:48:03;100373.84;;;22.97;47.32
48015;BME280;33780;51.034;7.120;2022-08-14T00:50:29;100370.28;;;22.96;47.34
48015;BME280;33780;51.034;7.120;2022-08-14T00:52:56;100366.72;;;22.96;47.32
48015;BME280;33780;51.034;7.120;2022-08-14T00:55:59;100366.97;;;22.94;48.00
48015;BME280;33780;51.034;7.120;2022-08-14T00:58:25;100362.78;;;22.91;47.71
48015;BME280;33780;51.034;7.120;2022-08-14T01:10:29;100342.91;;;22.84;48.55
48015;BME280;33780;51.034;7.120;2022-08-14T01:13:16;100336.00;;;22.82;48.24
48015;BME280;33780;51.034;7.120;2022-08-14T01:16:18;100335.13;;;22.81;47.97
48015;BME280;33780;51.034;7.120;2022-08-14T01:18:45;100346.91;;;22.82;48.52
48015;BME280;33780;51.034;7.120;2022-08-14T01:21:32;100333.28;;;22.82;48.22
48015;BME280;33780;51.034;7.120;2022-08-14T01:24:11;100334.31;;;22.81;48.19
48015;BME280;33780;51.034;7.120;2022-08-14T01:29:49;100329.03;;;22.79;49.03
48015;BME280;33780;51.034;7.120;2022-08-14T01:39:19;100309.31;;;22.77;49.01
48015;BME280;33780;51.034;7.120;2022-08-14T01:41:47;100302.81;;;22.78;49.49
48015;BME280;33780;51.034;7.120;2022-08-14T01:44:16;100302.81;;;22.78;49.53
48015;BME280;33780;51.034;7.120;2022-08-14T01:46:43;100296.28;;;22.79;49.25
48015;BME280;33780;51.034;7.120;2022-08-14T01:49:12;100295.47;;;22.79;49.70
48015;BME280;33780;51.034;7.120;2022-08-14T01:51:39;100283.28;;;22.81;49.82
48015;BME280;33780;51.034;7.120;2022-08-14T01:54:08;100279.31;;;22.84;50.11
48015;BME280;33780;51.034;7.120;2022-08-14T01:56:34;100278.25;;;22.85;49.68
48015;BME280;33780;51.034;7.120;2022-08-14T02:01:40;100277.78;;;22.88;49.39
48015;BME280;33780;51.034;7.120;2022-08-14T02:04:12;100270.44;;;22.88;49.72
48015;BME280;33780;51.034;7.120;2022-08-14T02:10:05;100264.75;;;22.90;49.85
48015;BME280;33780;51.034;7.120;2022-08-14T02:12:31;100258.69;;;22.88;50.36
48015;BME280;33780;51.034;7.120;2022-08-14T02:14:57;100265.22;;;22.87;50.19
48015;BME280;33780;51.034;7.120;2022-08-14T02:17:23;100261.66;;;22.86;50.29
48015;BME280;33780;51.034;7.120;2022-08-14T02:19:49;100251.56;;;22.87;50.70
48015;BME280;33780;51.034;7.120;2022-08-14T02:22:15;100248.84;;;22.87;50.48
48015;BME280;33780;51.034;7.120;2022-08-14T02:24:43;100244.00;;;22.89;50.96
48015;BME280;33780;51.034;7.120;2022-08-14T02:27:08;100250.88;;;22.91;50.87
48015;BME280;33780;51.034;7.120;2022-08-14T02:29:35;100251.72;;;22.92;50.99
48015;BME280;33780;51.034;7.120;2022-08-14T02:32:04;100245.59;;;22.97;50.72
48015;BME280;33780;51.034;7.120;2022-08-14T02:34:33;100247.06;;;22.99;50.52
48015;BME280;33780;51.034;7.120;2022-08-14T02:37:07;100249.34;;;23.02;50.95
48015;BME280;33780;51.034;7.120;2022-08-14T02:39:40;100258.34;;;23.03;50.69
48015;BME280;33780;51.034;7.120;2022-08-14T02:42:16;100258.13;;;23.04;50.58
48015;BME280;33780;51.034;7.120;2022-08-14T02:44:42;100259.78;;;23.05;50.34
48015;BME280;33780;51.034;7.120;2022-08-14T02:47:17;100264.19;;;23.06;50.80
48015;BME280;33780;51.034;7.120;2022-08-14T02:49:43;100249.94;;;23.04;50.61
48015;BME280;33780;51.034;7.120;2022-08-14T02:52:16;100257.53;;;23.02;51.20
48015;BME280;33780;51.034;7.120;2022-08-14T02:54:41;100256.91;;;23.00;50.76
48015;BME280;33780;51.034;7.120;2022-08-14T02:57:07;100259.03;;;22.98;50.75
48015;BME280;33780;51.034;7.120;2022-08-14T02:59:35;100261.34;;;22.95;50.54
48015;BME280;33780;51.034;7.120;2022-08-14T03:02:06;100262.63;;;22.92;50.69
48015;BME280;33780;51.034;7.120;2022-08-14T03:04:33;100262.03;;;22.90;50.88
48015;BME280;33780;51.034;7.120;2022-08-14T03:06:58;100263.31;;;22.87;50.77
48015;BME280;33780;51.034;7.120;2022-08-14T03:09:24;100263.53;;;22.86;50.97
48015;BME280;33780;51.034;7.120;2022-08-14T03:11:49;100260.63;;;22.81;50.82
48015;BME280;33780;51.034;7.120;2022-08-14T03:14:16;100262.09;;;22.77;51.01
48015;BME280;33780;51.034;7.120;2022-08-14T03:16:42;100261.72;;;22.73;51.22
48015;BME280;33780;51.034;7.120;2022-08-14T03:19:10;100258.00;;;22.68;51.23
48015;BME280;33780;51.034;7.120;2022-08-14T03:21:36;100258.66;;;22.63;51.36
48015;BME280;33780;51.034;7.120;2022-08-14T03:24:03;100264.53;;;22.60;51.46
48015;BME280;33780;51.034;7.120;2022-08-14T03:26:43;100269.84;;;22.55;51.60
48015;BME280;33780;51.034;7.120;2022-08-14T03:29:10;100262.09;;;22.52;51.36
48015;BME280;33780;51.034;7.120;2022-08-14T03:34:02;100263.41;;;22.43;51.81
48015;BME280;33780;51.034;7.120;2022-08-14T03:36:29;100264.91;;;22.39;52.31
48015;BME280;33780;51.034;7.120;2022-08-14T03:38:56;100260.13;;;22.34;52.40
48015;BME280;33780;51.034;7.120;2022-08-14T03:41:25;100266.25;;;22.29;52.09
48015;BME280;33780;51.034;7.120;2022-08-14T03:44:02;100262.25;;;22.25;52.19
48015;BME280;33780;51.034;7.120;2022-08-14T03:46:38;100260.19;;;22.21;52.25
48015;BME280;33780;51.034;7.120;2022-08-14T03:49:09;100262.31;;;22.19;52.03
48015;BME280;33780;51.034;7.120;2022-08-14T03:51:35;100260.88;;;22.16;52.38
48015;BME280;33780;51.034;7.120;2022-08-14T03:54:04;100251.47;;;22.12;52.17
48015;BME280;33780;51.034;7.120;2022-08-14T03:56:32;100252.31;;;22.06;52.50
48015;BME280;33780;51.034;7.120;2022-08-14T03:59:02;100253.78;;;22.02;52.54
48015;BME280;33780;51.034;7.120;2022-08-14T04:01:29;100259.88;;;21.97;52.72
48015;BME280;33780;51.034;7.120;2022-08-14T04:03:55;100256.16;;;21.92;52.84
48015;BME280;33780;51.034;7.120;2022-08-14T04:06:31;100250.50;;;21.87;52.60
48015;BME280;33780;51.034;7.120;2022-08-14T04:08:57;100250.94;;;21.84;53.09
48015;BME280;33780;51.034;7.120;2022-08-14T04:11:22;100245.53;;;21.77;52.96
48015;BME280;33780;51.034;7.120;2022-08-14T04:13:48;100249.75;;;21.73;53.05
48015;BME280;33780;51.034;7.120;2022-08-14T04:16:19;100248.25;;;21.70;53.36
48015;BME280;33780;51.034;7.120;2022-08-14T04:18:49;100259.38;;;21.69;53.54
48015;BME280;33780;51.034;7.120;2022-08-14T04:21:16;100258.97;;;21.65;53.31
48015;BME280;33780;51.034;7.120;2022-08-14T04:23:43;100266.75;;;21.62;53.41
48015;BME280;33780;51.034;7.120;2022-08-14T04:26:15;100264.47;;;21.59;53.30
48015;BME280;33780;51.034;7.120;2022-08-14T04:28:44;100259.44;;;21.56;53.63
48015;BME280;33780;51.034;7.120;2022-08-14T04:31:18;100250.84;;;21.52;54.46
48015;BME280;33780;51.034;7.120;2022-08-14T04:33:44;100252.94;;;21.50;54.03
48015;BME280;33780;51.034;7.120;2022-08-14T04:36:17;100253.38;;;21.47;54.39
48015;BME280;33780;51.034;7.120;2022-08-14T04:38:42;100247.31;;;21.45;54.11
48015;BME280;33780;51.034;7.120;2022-08-14T04:41:26;100242.09;;;21.44;54.12
48015;BME280;33780;51.034;7.120;2022-08-14T04:44:18;100241.47;;;21.41;53.89
48015;BME280;33780;51.034;7.120;2022-08-14T04:46:44;100236.47;;;21.38;54.14
48015;BME280;33780;51.034;7.120;2022-08-14T04:49:29;100231.41;;;21.35;54.18
48015;BME280;33780;51.034;7.120;2022-08-14T04:51:55;100229.97;;;21.33;54.95
48015;BME280;33780;51.034;7.120;2022-08-14T04:54:22;100226.84;;;21.29;54.51
48015;BME280;33780;51.034;7.120;2022-08-14T04:56:48;100235.00;;;21.29;54.92
48015;BME280;33780;51.034;7.120;2022-08-14T04:59:20;100231.44;;;21.29;54.67
48015;BME280;33780;51.034;7.120;2022-08-14T05:01:46;100229.78;;;21.28;54.90
48015;BME280;33780;51.034;7.120;2022-08-14T05:04:14;100228.94;;;21.27;54.76
48015;BME280;33780;51.034;7.120;2022-08-14T05:06:41;100232.72;;;21.26;54.85
48015;BME280;33780;51.034;7.120;2022-08-14T05:09:06;100232.72;;;21.26;55.02
48015;BME280;33780;51.034;7.120;2022-08-14T05:11:51;100233.75;;;21.25;55.05
48015;BME280;33780;51.034;7.120;2022-08-14T05:14:20;100233.94;;;21.24;54.96
48015;BME280;33780;51.034;7.120;2022-08-14T05:16:46;100234.81;;;21.24;55.41
48015;BME280;33780;51.034;7.120;2022-08-14T05:19:13;100228.50;;;21.24;55.32
48015;BME280;33780;51.034;7.120;2022-08-14T05:21:39;100223.06;;;21.24;55.68
48015;BME280;33780;51.034;7.120;2022-08-14T05:24:06;100228.72;;;21.22;55.53
48015;BME280;33780;51.034;7.120;2022-08-14T05:26:31;100223.28;;;21.22;55.71
48015;BME280;33780;51.034;7.120;2022-08-14T05:28:56;100231.44;;;21.22;55.68
48015;BME280;33780;51.034;7.120;2022-08-14T05:31:22;100227.88;;;21.22;55.88
48015;BME280;33780;51.034;7.120;2022-08-14T05:33:48;100221.22;;;21.24;55.82
48015;BME280;33780;51.034;7.120;2022-08-14T05:36:18;100215.75;;;21.24;55.75
48015;BME280;33780;51.034;7.120;2022-08-14T05:38:45;100210.94;;;21.26;56.12
48015;BME280;33780;51.034;7.120;2022-08-14T05:41:24;100214.50;;;21.27;56.04
48015;BME280;33780;51.034;7.120;2022-08-14T05:43:50;100212.59;;;21.27;56.26
48015;BME280;33780;51.034;7.120;2022-08-14T05:46:19;100199.84;;;21.28;55.91
48015;BME280;33780;51.034;7.120;2022-08-14T05:48:52;100201.28;;;21.30;56.19
48015;BME280;33780;51.034;7.120;2022-08-14T05:51:19;100192.06;;;21.31;56.57
48015;BME280;33780;51.034;7.120;2022-08-14T05:53:45;100190.19;;;21.32;56.30
48015;BME280;33780;51.034;7.120;2022-08-14T05:56:11;100194.56;;;21.33;56.30
48015;BME280;33780;51.034;7.120;2022-08-14T05:58:36;100195.19;;;21.35;56.46
48015;BME280;33780;51.034;7.120;2022-08-14T06:01:02;100191.41;;;21.36;56.52
48015;BME280;33780;51.034;7.120;2022-08-14T06:03:27;100194.78;;;21.38;56.49
48015;BME280;33780;51.034;7.120;2022-08-14T06:05:54;100188.28;;;21.39;56.84
48015;BME280;33780;51.034;7.120;2022-08-14T06:08:27;100179.69;;;21.42;56.50
48015;BME280;33780;51.034;7.120;2022-08-14T06:10:55;100183.03;;;21.44;56.98
48015;BME280;33780;51.034;7.120;2022-08-14T06:13:22;100183.22;;;21.49;57.13
48015;BME280;33780;51.034;7.120;2022-08-14T06:15:48;100186.53;;;21.51;57.40
48015;BME280;33780;51.034;7.120;2022-08-14T06:18:33;100189.69;;;21.55;58.06
48015;BME280;33780;51.034;7.120;2022-08-14T06:21:01;100180.88;;;21.59;57.24
48015;BME280;33780;51.034;7.120;2022-08-14T06:23:26;100186.50;;;21.64;56.94
48015;BME280;33780;51.034;7.120;2022-08-14T06:25:51;100174.09;;;21.68;57.18
48015;BME280;33780;51.034;7.120;2022-08-14T06:28:21;100178.69;;;21.75;57.14
48015;BME280;33780;51.034;7.120;2022-08-14T06:30:50;100169.66;;;21.81;57.33
48015;BME280;33780;51.034;7.120;2022-08-14T06:33:17;100168.53;;;21.88;57.28
48015;BME280;33780;51.034;7.120;2022-08-14T06:35:43;100166.84;;;21.94;57.24
48015;BME280;33780;51.034;7.120;2022-08-14T06:38:14;100173.91;;;22.01;56.78
48015;BME280;33780;51.034;7.120;2022-08-14T06:40:39;100167.41;;;22.09;56.82
48015;BME280;33780;51.034;7.120;2022-08-14T06:43:09;100173.41;;;22.18;56.81
48015;BME280;33780;51.034;7.120;2022-08-14T06:45:37;100177.56;;;22.27;56.42
48015;BME280;33780;51.034;7.120;2022-08-14T06:48:12;100171.81;;;22.35;56.29
48015;BME280;33780;51.034;7.120;2022-08-14T06:50:38;100166.06;;;22.43;56.38
48015;BME280;33780;51.034;7.120;2022-08-14T06:53:04;100168.53;;;22.51;56.39
48015;BME280;33780;51.034;7.120;2022-08-14T06:55:29;100166.34;;;22.60;56.14
48015;BME280;33780;51.034;7.120;2022-08-14T06:57:55;100160.00;;;22.66;55.68
48015;BME280;33780;51.034;7.120;2022-08-14T07:00:22;100157.00;;;22.74;55.64
48015;BME280;33780;51.034;7.120;2022-08-14T07:02:49;100158.63;;;22.82;55.89
48015;BME280;33780;51.034;7.120;2022-08-14T07:05:34;100156.66;;;22.89;55.98
48015;BME280;33780;51.034;7.120;2022-08-14T07:08:23;100156.59;;;22.96;55.39
48015;BME280;33780;51.034;7.120;2022-08-14T07:10:56;100153.81;;;23.02;55.62
48015;BME280;33780;51.034;7.120;2022-08-14T07:13:23;100147.66;;;23.07;55.15
48015;BME280;33780;51.034;7.120;2022-08-14T07:15:51;100151.13;;;23.14;55.24
48015;BME280;33780;51.034;7.120;2022-08-14T07:18:20;100143.94;;;23.19;55.07
48015;BME280;33780;51.034;7.120;2022-08-14T07:20:45;100141.94;;;23.27;54.85
48015;BME280;33780;51.034;7.120;2022-08-14T07:23:11;100133.91;;;23.32;55.08
48015;BME280;33780;51.034;7.120;2022-08-14T07:25:39;100131.34;;;23.37;54.94
48015;BME280;33780;51.034;7.120;2022-08-14T07:28:14;100133.13;;;23.43;54.75
48015;BME280;33780;51.034;7.120;2022-08-14T07:30:40;100141.47;;;23.48;54.87
48015;BME280;33780;51.034;7.120;2022-08-14T07:33:06;100129.03;;;23.52;54.46
48015;BME280;33780;51.034;7.120;2022-08-14T07:35:34;100131.94;;;23.57;54.77
48015;BME280;33780;51.034;7.120;2022-08-14T07:38:00;100128.25;;;23.63;54.39
48015;BME280;33780;51.034;7.120;2022-08-14T07:40:25;100118.53;;;23.67;54.34
48015;BME280;33780;51.034;7.120;2022-08-14T07:42:51;100121.44;;;23.72;54.05
48015;BME280;33780;51.034;7.120;2022-08-14T07:45:17;100126.19;;;23.77;53.96
48015;BME280;33780;51.034;7.120;2022-08-14T07:47:42;100118.94;;;23.83;54.05
48015;BME280;33780;51.034;7.120;2022-08-14T07:50:14;100120.97;;;23.87;54.07
48015;BME280;33780;51.034;7.120;2022-08-14T07:52:44;100115.66;;;23.92;53.81
48015;BME280;33780;51.034;7.120;2022-08-14T07:55:13;100115.78;;;23.97;53.51
48015;BME280;33780;51.034;7.120;2022-08-14T07:57:40;100118.41;;;24.04;53.49
48015;BME280;33780;51.034;7.120;2022-08-14T08:00:15;100113.09;;;24.09;53.35
48015;BME280;33780;51.034;7.120;2022-08-14T08:02:43;100108.56;;;24.15;53.45
48015;BME280;33780;51.034;7.120;2022-08-14T08:05:10;100118.78;;;24.19;53.34
48015;BME280;33780;51.034;7.120;2022-08-14T08:07:37;100118.09;;;24.24;52.99
48015;BME280;33780;51.034;7.120;2022-08-14T08:10:10;100113.81;;;24.28;52.57
48015;BME280;33780;51.034;7.120;2022-08-14T08:12:55;100104.94;;;24.32;52.61
48015;BME280;33780;51.034;7.120;2022-08-14T08:15:26;100105.06;;;24.37;52.42
48015;BME280;33780;51.034;7.120;2022-08-14T08:17:52;100110.88;;;24.41;52.44
48015;BME280;33780;51.034;7.120;2022-08-14T08:20:20;100112.69;;;24.47;52.91
48015;BME280;33780;51.034;7.120;2022-08-14T08:22:48;100116.34;;;24.53;52.54
48015;BME280;33780;51.034;7.120;2022-08-14T08:25:15;100109.91;;;24.59;52.40
48015;BME280;33780;51.034;7.120;2022-08-14T08:27:41;100103.53;;;24.65;52.46
48015;BME280;33780;51.034;7.120;2022-08-14T08:30:08;100107.19;;;24.70;52.09
48015;BME280;33780;51.034;7.120;2022-08-14T08:32:41;100108.13;;;24.76;51.54
48015;BME280;33780;51.034;7.120;2022-08-14T08:35:22;100114.56;;;24.82;51.63
48015;BME280;33780;51.034;7.120;2022-08-14T08:37:50;100117.41;;;24.87;51.26
48015;BME280;33780;51.034;7.120;2022-08-14T08:40:28;100111.44;;;24.90;51.21
48015;BME280;33780;51.034;7.120;2022-08-14T08:42:56;100100.38;;;24.96;51.16
48015;BME280;33780;51.034;7.120;2022-08-14T08:45:21;100103.25;;;25.02;51.01
48015;BME280;33780;51.034;7.120;2022-08-14T08:47:48;100102.53;;;25.06;50.59
48015;BME280;33780;51.034;7.120;2022-08-14T08:53:04;100097.84;;;25.18;50.66
48015;BME280;33780;51.034;7.120;2022-08-14T08:55:35;100085.09;;;25.24;50.68
48015;BME280;33780;51.034;7.120;2022-08-14T08:58:05;100084.84;;;25.25;50.72
48015;BME280;33780;51.034;7.120;2022-08-14T09:00:32;100083.75;;;25.26;50.33
48015;BME280;33780;51.034;7.120;2022-08-14T09:05:29;100083.28;;;25.29;50.19
48015;BME280;33780;51.034;7.120;2022-08-14T09:08:10;100080.06;;;25.33;49.84
48015;BME280;33780;51.034;7.120;2022-08-14T09:10:35;100088.88;;;25.35;49.66
48015;BME280;33780;51.034;7.120;2022-08-14T09:13:02;100082.66;;;25.39;49.73
48015;BME280;33780;51.034;7.120;2022-08-14T09:15:29;100075.84;;;25.42;49.61
48015;BME280;33780;51.034;7.120;2022-08-14T09:17:54;100074.53;;;25.44;49.35
48015;BME280;33780;51.034;7.120;2022-08-14T09:20:20;100070.47;;;25.47;49.45
48015;BME280;33780;51.034;7.120;2022-08-14T09:22:46;100075.22;;;25.51;49.10
48015;BME280;33780;51.034;7.120;2022-08-14T09:25:12;100069.25;;;25.54;48.87
48015;BME280;33780;51.034;7.120;2022-08-14T09:27:37;100067.66;;;25.58;48.70
48015;BME280;33780;51.034;7.120;2022-08-14T09:30:05;100063.09;;;25.64;48.69
48015;BME280;33780;51.034;7.120;2022-08-14T09:32:38;100056.09;;;25.68;48.70
48015;BME280;33780;51.034;7.120;2022-08-14T09:35:16;100051.78;;;25.72;47.81
48015;BME280;33780;51.034;7.120;2022-08-14T09:41:11;100044.31;;;25.84;47.89
48015;BME280;33780;51.034;7.120;2022-08-14T09:43:18;100037.25;;;25.88;47.89
48015;BME280;33780;51.034;7.120;2022-08-14T09:45:49;100031.84;;;25.94;48.12
48015;BME280;33780;51.034;7.120;2022-08-14T09:48:16;100022.63;;;26.00;47.74
48015;BME280;33780;51.034;7.120;2022-08-14T09:50:50;100021.63;;;26.06;47.63
48015;BME280;33780;51.034;7.120;2022-08-14T09:53:42;100014.31;;;26.11;46.83
48015;BME280;33780;51.034;7.120;2022-08-14T09:56:12;100014.63;;;26.15;46.44
48015;BME280;33780;51.034;7.120;2022-08-14T09:58:45;100011.38;;;26.18;46.64
48015;BME280;33780;51.034;7.120;2022-08-14T10:01:18;100012.56;;;26.22;46.43
48015;BME280;33780;51.034;7.120;2022-08-14T10:03:53;100015.38;;;26.27;46.52
48015;BME280;33780;51.034;7.120;2022-08-14T10:06:27;100015.44;;;26.32;46.12
48015;BME280;33780;51.034;7.120;2022-08-14T10:09:01;100019.13;;;26.38;45.66
48015;BME280;33780;51.034;7.120;2022-08-14T10:11:33;100016.47;;;26.43;45.81
48015;BME280;33780;51.034;7.120;2022-08-14T10:14:17;100013.25;;;26.51;45.67
48015;BME280;33780;51.034;7.120;2022-08-14T10:16:46;100010.59;;;26.56;44.57
48015;BME280;33780;51.034;7.120;2022-08-14T10:19:14;100006.00;;;26.62;45.26
48015;BME280;33780;51.034;7.120;2022-08-14T10:21:42;100005.25;;;26.66;43.28
48015;BME280;33780;51.034;7.120;2022-08-14T10:24:23;99993.81;;;26.74;43.78
48015;BME280;33780;51.034;7.120;2022-08-14T10:26:56;99991.13;;;26.79;43.71
48015;BME280;33780;51.034;7.120;2022-08-14T10:29:36;99992.59;;;26.87;44.28
48015;BME280;33780;51.034;7.120;2022-08-14T10:32:03;99992.41;;;26.94;43.78
48015;BME280;33780;51.034;7.120;2022-08-14T10:34:37;99982.06;;;27.01;43.78
48015;BME280;33780;51.034;7.120;2022-08-14T10:37:09;99973.63;;;27.07;43.65
48015;BME280;33780;51.034;7.120;2022-08-14T10:39:43;99966.84;;;27.15;43.49
48015;BME280;33780;51.034;7.120;2022-08-14T10:42:13;99958.41;;;27.22;42.85
48015;BME280;33780;51.034;7.120;2022-08-14T10:44:41;99959.25;;;27.27;41.78
48015;BME280;33780;51.034;7.120;2022-08-14T10:47:11;99964.81;;;27.32;42.55
48015;BME280;33780;51.034;7.120;2022-08-14T10:49:40;99958.53;;;27.37;42.49
48015;BME280;33780;51.034;7.120;2022-08-14T10:52:25;99952.56;;;27.45;42.61
48015;BME280;33780;51.034;7.120;2022-08-14T10:54:52;99954.28;;;27.51;42.50
48015;BME280;33780;51.034;7.120;2022-08-14T10:57:26;99962.03;;;27.59;42.09
48015;BME280;33780;51.034;7.120;2022-08-14T10:59:59;99945.09;;;27.67;41.29
48015;BME280;33780;51.034;7.120;2022-08-14T11:02:35;99948.44;;;27.75;41.13
48015;BME280;33780;51.034;7.120;2022-08-14T11:05:05;99943.81;;;27.80;41.08
48015;BME280;33780;51.034;7.120;2022-08-14T11:07:36;99946.06;;;27.88;41.56
48015;BME280;33780;51.034;7.120;2022-08-14T11:10:12;99947.22;;;27.97;41.08
48015;BME280;33780;51.034;7.120;2022-08-14T11:12:45;99954.16;;;28.05;41.00
48015;BME280;33780;51.034;7.120;2022-08-14T11:15:20;99948.41;;;28.07;40.00
48015;BME280;33780;51.034;7.120;2022-08-14T11:17:47;99948.13;;;28.08;39.99
48015;BME280;33780;51.034;7.120;2022-08-14T11:20:18;99949.22;;;28.07;40.02
48015;BME280;33780;51.034;7.120;2022-08-14T11:22:44;99952.25;;;28.06;40.37
48015;BME280;33780;51.034;7.120;2022-08-14T11:25:14;99945.34;;;28.03;40.31
48015;BME280;33780;51.034;7.120;2022-08-14T11:27:42;99941.19;;;28.00;40.60
48015;BME280;33780;51.034;7.120;2022-08-14T11:30:13;99940.63;;;27.98;40.25
48015;BME280;33780;51.034;7.120;2022-08-14T11:32:41;99940.88;;;27.97;40.12
48015;BME280;33780;51.034;7.120;2022-08-14T11:35:12;99941.44;;;27.94;40.71
48015;BME280;33780;51.034;7.120;2022-08-14T11:40:22;99921.09;;;28.00;40.65
48015;BME280;33780;51.034;7.120;2022-08-14T11:42:49;99918.69;;;28.09;40.67
48015;BME280;33780;51.034;7.120;2022-08-14T11:45:22;99907.16;;;28.17;39.62
48015;BME280;33780;51.034;7.120;2022-08-14T11:47:49;99901.16;;;28.25;39.63
48015;BME280;33780;51.034;7.120;2022-08-14T11:50:27;99902.06;;;28.36;39.60
48015;BME280;33780;51.034;7.120;2022-08-14T11:52:55;99900.19;;;28.46;39.80
48015;BME280;33780;51.034;7.120;2022-08-14T11:55:25;99901.88;;;28.57;39.83
48015;BME280;33780;51.034;7.120;2022-08-14T11:58:03;99895.84;;;28.71;39.33
48015;BME280;33780;51.034;7.120;2022-08-14T12:00:29;99893.97;;;28.81;38.30
48015;BME280;33780;51.034;7.120;2022-08-14T12:02:57;99885.75;;;28.92;37.95
48015;BME280;33780;51.034;7.120;2022-08-14T12:05:38;99878.31;;;29.02;38.38
48015;BME280;33780;51.034;7.120;2022-08-14T12:08:06;99869.53;;;29.10;38.24
48015;BME280;33780;51.034;7.120;2022-08-14T12:10:33;99860.97;;;29.17;37.87
48015;BME280;33780;51.034;7.120;2022-08-14T12:13:10;99859.03;;;29.23;37.63
48015;BME280;33780;51.034;7.120;2022-08-14T12:15:36;99861.81;;;29.28;37.40
48015;BME280;33780;51.034;7.120;2022-08-14T12:18:02;99860.41;;;29.25;37.07
48015;BME280;33780;51.034;7.120;2022-08-14T12:20:33;99865.41;;;29.28;37.40
48015;BME280;33780;51.034;7.120;2022-08-14T12:23:01;99859.06;;;29.28;37.05
48015;BME280;33780;51.034;7.120;2022-08-14T12:25:28;99855.19;;;29.24;37.11
48015;BME280;33780;51.034;7.120;2022-08-14T12:27:55;99849.66;;;29.18;37.54
48015;BME280;33780;51.034;7.120;2022-08-14T12:30:40;99849.41;;;29.15;37.63
48015;BME280;33780;51.034;7.120;2022-08-14T12:33:28;99845.25;;;29.17;37.27
48015;BME280;33780;51.034;7.120;2022-08-14T12:35:59;99838.63;;;29.24;37.60
48015;BME280;33780;51.034;7.120;2022-08-14T12:38:37;99841.13;;;29.25;37.23
48015;BME280;33780;51.034;7.120;2022-08-14T12:41:13;99833.94;;;29.24;37.32
48015;BME280;33780;51.034;7.120;2022-08-14T12:44:07;99829.84;;;29.27;36.86
48015;BME280;33780;51.034;7.120;2022-08-14T12:46:35;99816.88;;;29.27;36.54
48015;BME280;33780;51.034;7.120;2022-08-14T12:49:15;99811.09;;;29.29;36.28
48015;BME280;33780;51.034;7.120;2022-08-14T12:51:42;99810.81;;;29.30;36.08
48015;BME280;33780;51.034;7.120;2022-08-14T12:54:17;99806.66;;;29.33;36.25
48015;BME280;33780;51.034;7.120;2022-08-14T12:56:44;99800.28;;;29.42;36.38
48015;BME280;33780;51.034;7.120;2022-08-14T13:02:23;99783.19;;;29.61;36.57
48015;BME280;33780;51.034;7.120;2022-08-14T13:04:49;99785.41;;;29.64;36.57
48015;BME280;33780;51.034;7.120;2022-08-14T13:07:14;99784.00;;;29.71;36.55
48015;BME280;33780;51.034;7.120;2022-08-14T13:09:39;99787.88;;;29.70;36.73
48015;BME280;33780;51.034;7.120;2022-08-14T13:12:05;99788.44;;;29.67;36.08
48015;BME280;33780;51.034;7.120;2022-08-14T13:14:31;99794.50;;;29.64;35.98
48015;BME280;33780;51.034;7.120;2022-08-14T13:16:58;99780.72;;;29.64;36.49
48015;BME280;33780;51.034;7.120;2022-08-14T13:19:26;99783.19;;;29.71;36.72
48015;BME280;33780;51.034;7.120;2022-08-14T13:21:52;99770.44;;;29.80;36.12
48015;BME280;33780;51.034;7.120;2022-08-14T13:24:20;99774.31;;;29.84;36.25
48015;BME280;33780;51.034;7.120;2022-08-14T13:26:52;99769.91;;;29.83;36.67
48015;BME280;33780;51.034;7.120;2022-08-14T13:29:23;99771.00;;;29.82;36.41
48015;BME280;33780;51.034;7.120;2022-08-14T13:31:51;99759.97;;;29.77;36.43
48015;BME280;33780;51.034;7.120;2022-08-14T13:34:19;99764.69;;;29.71;36.63
48015;BME280;33780;51.034;7.120;2022-08-14T13:36:45;99763.31;;;29.69;36.26
48015;BME280;33780;51.034;7.120;2022-08-14T13:39:14;99747.56;;;29.74;36.34
48015;BME280;33780;51.034;7.120;2022-08-14T13:41:41;99746.19;;;29.82;35.67
48015;BME280;33780;51.034;7.120;2022-08-14T13:44:07;99729.28;;;29.94;36.37
48015;BME280;33780;51.034;7.120;2022-08-14T13:46:33;99733.09;;;30.08;36.42
48015;BME280;33780;51.034;7.120;2022-08-14T13:48:58;99729.72;;;30.21;36.17
48015;BME280;33780;51.034;7.120;2022-08-14T13:51:25;99727.97;;;30.35;36.41
48015;BME280;33780;51.034;7.120;2022-08-14T13:53:55;99719.84;;;30.49;36.16
48015;BME280;33780;51.034;7.120;2022-08-14T13:56:26;99717.00;;;30.64;35.92